Time;durP1;ratioP1;P1;durP2;ratioP2;P2;SDS_P1;SDS_P2;PMS_P1;PMS_P2;Temp;Humidity;BMP_temperature;BMP_pressure;BME280_temperature;BME280_humidity;BME280_pressure;Samples;Min_cycle;Max_cycle;Signal;HPM_P1;HPM_P2
2023/05/24 00:01:24;;;;;;;17.13;4.45;;;;;;;7.77;100.00;102480.59;5230370;28;20075;-71
2023/05/24 00:06:43;;;;;;;20.38;3.78;;;;;;;7.78;100.00;102469.84;5235841;28;20051;-71
2023/05/24 00:09:14;;;;;;;26.63;5.15;;;;;;;7.89;100.00;102481.56;5233129;28;20028;-71
2023/05/24 00:11:44;;;;;;;17.40;3.72;;;;;;;7.99;100.00;102478.13;5229356;28;20028;-71
2023/05/24 00:14:15;;;;;;;19.17;4.32;;;;;;;8.06;100.00;102478.53;5232290;28;20048;-72
2023/05/24 00:16:45;;;;;;;23.00;4.60;;;;;;;8.08;100.00;102484.63;5236111;28;20021;-71
2023/05/24 00:19:17;;;;;;;19.38;4.55;;;;;;;8.09;100.00;102474.81;5235656;28;20028;-71
2023/05/24 00:21:47;;;;;;;23.25;6.13;;;;;;;8.12;100.00;102478.09;5240541;28;20070;-71
2023/05/24 00:24:18;;;;;;;23.58;4.47;;;;;;;8.14;100.00;102476.19;5239283;28;20644;-71
2023/05/24 00:26:49;;;;;;;15.82;3.95;;;;;;;8.15;100.00;102477.03;5222116;28;20087;-71
2023/05/24 00:29:20;;;;;;;23.73;5.05;;;;;;;8.13;100.00;102473.59;5222614;28;20025;-71
2023/05/24 00:31:50;;;;;;;23.02;4.82;;;;;;;8.11;100.00;102475.53;5222646;28;20021;-72
2023/05/24 00:34:21;;;;;;;25.23;4.65;;;;;;;8.12;100.00;102478.09;5222344;28;20031;-71
2023/05/24 00:36:51;;;;;;;18.40;4.07;;;;;;;8.13;100.00;102474.44;5222105;28;20474;-72
2023/05/24 00:39:22;;;;;;;21.58;4.78;;;;;;;8.10;100.00;102472.00;5227294;28;20028;-72
2023/05/24 00:41:52;;;;;;;20.33;4.90;;;;;;;8.08;100.00;102471.25;5234770;28;20032;-72
2023/05/24 00:44:23;;;;;;;21.45;4.57;;;;;;;8.04;100.00;102465.28;5230064;28;20035;-72
2023/05/24 00:46:54;;;;;;;27.23;4.15;;;;;;;8.01;100.00;102461.97;5231206;28;20029;-71
2023/05/24 00:49:25;;;;;;;21.35;4.18;;;;;;;7.98;100.00;102451.50;5230367;28;20029;-71
2023/05/24 00:51:55;;;;;;;19.02;5.07;;;;;;;7.96;100.00;102458.78;5233481;28;20102;-71
2023/05/24 00:54:28;;;;;;;17.92;3.92;;;;;;;7.90;100.00;102460.06;5239353;28;20028;-71
2023/05/24 00:56:58;;;;;;;16.85;3.75;;;;;;;7.90;100.00;102457.41;5239176;28;20025;-71
2023/05/24 00:59:29;;;;;;;22.92;4.30;;;;;;;7.83;100.00;102458.81;5234947;28;20050;-71
2023/05/24 01:02:00;;;;;;;21.73;4.13;;;;;;;7.75;100.00;102459.34;5230438;28;20079;-71
2023/05/24 01:04:31;;;;;;;10.50;4.00;;;;;;;7.64;100.00;102463.75;5237716;28;20470;-71
2023/05/24 01:07:26;;;;;;;16.35;4.47;;;;;;;7.53;100.00;102460.00;5233208;28;20115;-71
2023/05/24 01:10:24;;;;;;;25.85;5.18;;;;;;;7.45;100.00;102462.34;5231701;28;20437;-71
2023/05/24 01:12:55;;;;;;;22.02;4.40;;;;;;;7.36;100.00;102462.13;5234366;28;20033;-72
2023/05/24 01:15:36;;;;;;;21.35;4.20;;;;;;;7.31;100.00;102464.28;5239230;28;20025;-71
2023/05/24 01:18:29;;;;;;;20.63;4.65;;;;;;;7.21;100.00;102461.38;5238841;28;20473;-71
2023/05/24 01:21:37;;;;;;;18.02;4.30;;;;;;;7.13;100.00;102453.03;5237502;28;20016;-71
2023/05/24 01:24:08;;;;;;;15.32;4.47;;;;;;;7.09;100.00;102451.56;5245695;28;20552;-71
2023/05/24 01:26:44;;;;;;;12.20;3.80;;;;;;;6.98;100.00;102460.28;5239687;28;20032;-71
2023/05/24 01:29:17;;;;;;;16.88;5.20;;;;;;;6.89;100.00;102464.41;5240234;28;20472;-71
2023/05/24 01:31:48;;;;;;;17.50;4.30;;;;;;;6.82;100.00;102455.09;5240261;28;20048;-71
2023/05/24 01:34:19;;;;;;;16.58;5.03;;;;;;;6.76;100.00;102455.50;5233166;28;20024;-71
2023/05/24 01:36:49;;;;;;;16.10;4.70;;;;;;;6.70;100.00;102453.25;5235033;28;20086;-71
2023/05/24 01:39:21;;;;;;;26.70;4.90;;;;;;;6.66;100.00;102459.75;5238551;28;20033;-71
2023/05/24 01:42:18;;;;;;;17.10;5.13;;;;;;;6.61;100.00;102456.53;5245679;28;20033;-72
2023/05/24 01:45:03;;;;;;;;;;;;;;;6.55;100.00;102448.94;5235510;28;20136;-72
2023/05/24 01:48:07;;;;;;;23.63;4.72;;;;;;;6.49;100.00;102458.22;5234607;28;19908;-71
2023/05/24 01:50:47;;;;;;;18.08;4.93;;;;;;;6.40;100.00;102449.00;5242213;28;20039;-71
2023/05/24 01:53:20;;;;;;;15.68;4.65;;;;;;;6.35;100.00;102453.78;5220608;28;20025;-71
2023/05/24 01:55:55;;;;;;;17.15;4.53;;;;;;;6.30;100.00;102455.03;5232009;28;20118;-71
2023/05/24 01:58:28;;;;;;;15.18;5.13;;;;;;;6.26;100.00;102448.19;5233162;28;20025;-71
2023/05/24 02:00:59;;;;;;;19.77;4.70;;;;;;;6.17;100.00;102449.63;5236673;28;20025;-71
2023/05/24 02:03:30;;;;;;;14.25;4.60;;;;;;;6.11;100.00;102447.34;5239320;28;20383;-71
2023/05/24 02:06:01;;;;;;;17.85;4.50;;;;;;;6.05;100.00;102448.59;5234562;28;20020;-71
2023/05/24 02:08:31;;;;;;;16.80;5.22;;;;;;;6.00;100.00;102444.53;5231735;28;20033;-71
2023/05/24 02:11:02;;;;;;;22.98;5.85;;;;;;;5.96;100.00;102439.38;5234792;28;20402;-71
2023/05/24 02:13:33;;;;;;;24.65;5.32;;;;;;;5.92;100.00;102442.34;5238400;28;20056;-71
2023/05/24 02:16:03;;;;;;;16.95;5.40;;;;;;;5.86;100.00;102437.38;5236932;28;20066;-71
2023/05/24 02:18:35;;;;;;;15.75;4.93;;;;;;;5.84;100.00;102442.78;5231933;28;20021;-71
2023/05/24 02:21:06;;;;;;;21.33;5.30;;;;;;;5.81;100.00;102444.78;5241132;28;20432;-71
2023/05/24 02:23:37;;;;;;;18.58;7.20;;;;;;;5.75;100.00;102440.72;5240976;28;20025;-71
2023/05/24 02:26:10;;;;;;;14.02;4.55;;;;;;;5.75;100.00;102443.38;5231154;28;20020;-71
2023/05/24 02:28:40;;;;;;;25.02;5.88;;;;;;;5.72;100.00;102446.22;5235295;28;20494;-71
2023/05/24 02:31:11;;;;;;;13.95;4.40;;;;;;;5.65;100.00;102451.06;5238280;28;20031;-71
2023/05/24 02:33:42;;;;;;;19.80;4.35;;;;;;;5.63;100.00;102452.13;5236448;28;20016;-71
2023/05/24 02:36:12;;;;;;;15.23;5.05;;;;;;;5.59;100.00;102450.59;5231609;28;20032;-72
2023/05/24 02:38:43;;;;;;;19.35;5.22;;;;;;;5.56;100.00;102450.78;5232175;28;20035;-72
2023/05/24 02:41:16;;;;;;;15.13;4.38;;;;;;;5.54;100.00;102450.88;5236910;28;20112;-72
2023/05/24 02:43:47;;;;;;;27.25;5.05;;;;;;;5.52;100.00;102447.44;5231008;28;20104;-72
2023/05/24 02:46:17;;;;;;;21.45;4.63;;;;;;;5.47;100.00;102444.22;5236638;28;20031;-72
2023/05/24 02:48:48;;;;;;;23.92;5.32;;;;;;;5.44;100.00;102434.63;5228815;28;20155;-72
2023/05/24 02:51:19;;;;;;;21.40;4.80;;;;;;;5.41;100.00;102432.13;5236219;28;20242;-71
2023/05/24 02:53:49;;;;;;;18.95;4.70;;;;;;;5.39;100.00;102419.88;5237883;28;20475;-71
2023/05/24 02:56:20;;;;;;;18.45;4.75;;;;;;;5.35;100.00;102424.53;5234012;28;20032;-71
2023/05/24 02:58:53;;;;;;;18.30;4.70;;;;;;;5.31;100.00;102427.47;5231090;28;20017;-72
2023/05/24 03:01:23;;;;;;;13.85;3.65;;;;;;;5.28;100.00;102431.19;5233110;28;20029;-71
2023/05/24 03:03:54;;;;;;;13.52;4.55;;;;;;;5.25;100.00;102434.03;5237423;28;20043;-71
2023/05/24 03:06:24;;;;;;;15.63;4.32;;;;;;;5.24;100.00;102436.78;5237189;28;20030;-71
2023/05/24 03:08:55;;;;;;;16.75;4.20;;;;;;;5.23;100.00;102432.44;5230731;28;20032;-71
2023/05/24 03:11:26;;;;;;;21.25;5.20;;;;;;;5.16;100.00;102435.44;5231291;28;20374;-71
2023/05/24 03:13:56;;;;;;;18.55;4.78;;;;;;;5.14;100.00;102442.66;5236469;28;20035;-71
2023/05/24 03:16:27;;;;;;;20.08;4.05;;;;;;;5.10;100.00;102445.59;5236817;28;20024;-71
2023/05/24 03:18:58;;;;;;;18.38;4.65;;;;;;;5.08;100.00;102445.69;5232906;28;20217;-71
2023/05/24 03:21:29;;;;;;;15.63;4.68;;;;;;;5.03;100.00;102434.47;5231680;28;20025;-71
2023/05/24 03:23:59;;;;;;;18.90;4.78;;;;;;;4.98;100.00;102436.56;5240115;28;20035;-71
2023/05/24 03:26:30;;;;;;;23.10;4.85;;;;;;;4.92;100.00;102434.28;5224701;28;20370;-71
2023/05/24 03:29:00;;;;;;;15.02;3.95;;;;;;;4.87;100.00;102429.22;5223812;28;20036;-71
2023/05/24 03:31:31;;;;;;;18.67;4.70;;;;;;;4.84;100.00;102428.53;5223377;28;20013;-71
2023/05/24 03:34:01;;;;;;;17.25;4.57;;;;;;;4.81;100.00;102423.38;5223368;28;20017;-71
2023/05/24 03:36:32;;;;;;;15.38;4.57;;;;;;;4.79;100.00;102430.63;5223327;28;20501;-71
2023/05/24 03:39:03;;;;;;;16.40;4.82;;;;;;;4.76;100.00;102434.28;5223399;28;20028;-71
2023/05/24 03:41:34;;;;;;;30.00;5.68;;;;;;;4.75;100.00;102439.72;5238541;28;20444;-71
2023/05/24 03:44:04;;;;;;;21.40;4.85;;;;;;;4.71;100.00;102440.81;5234196;28;20099;-71
2023/05/24 03:46:35;;;;;;;11.48;4.53;;;;;;;4.66;100.00;102444.59;5233267;28;20112;-71
2023/05/24 03:49:06;;;;;;;22.25;5.72;;;;;;;4.71;100.00;102444.34;5230477;28;20466;-71
2023/05/24 03:51:37;;;;;;;17.58;4.97;;;;;;;4.76;100.00;102457.38;5232648;28;20518;-71
2023/05/24 03:54:07;;;;;;;21.17;4.90;;;;;;;4.79;100.00;102451.88;5236961;28;20074;-71
2023/05/24 03:56:38;;;;;;;16.02;4.38;;;;;;;4.79;100.00;102442.09;5235971;28;20040;-70
2023/05/24 03:59:08;;;;;;;20.55;5.65;;;;;;;4.80;100.00;102449.13;5230771;28;20040;-71
2023/05/24 04:01:39;;;;;;;11.75;4.55;;;;;;;4.75;100.00;102448.53;5238424;28;20525;-71
2023/05/24 04:04:09;;;;;;;15.75;4.18;;;;;;;4.70;100.00;102437.31;5237356;28;20070;-70
2023/05/24 04:06:40;;;;;;;24.90;5.25;;;;;;;4.69;100.00;102443.59;5230142;28;20021;-71
2023/05/24 04:09:11;;;;;;;15.98;4.30;;;;;;;4.69;100.00;102443.59;5232589;28;20052;-71
2023/05/24 04:11:41;;;;;;;19.33;5.28;;;;;;;4.72;100.00;102454.06;5236808;28;20373;-71
2023/05/24 04:14:12;;;;;;;16.60;6.05;;;;;;;4.75;100.00;102445.88;5234494;28;20028;-71
2023/05/24 04:16:43;;;;;;;15.27;4.63;;;;;;;4.76;100.00;102447.59;5229804;28;20109;-71
2023/05/24 04:19:14;;;;;;;18.58;5.18;;;;;;;4.78;100.00;102453.69;5231939;28;20103;-71
2023/05/24 04:21:44;;;;;;;20.08;5.22;;;;;;;4.83;100.00;102456.94;5241260;28;20572;-71
2023/05/24 04:24:15;;;;;;;12.40;5.38;;;;;;;4.86;100.00;102456.72;5241920;28;20029;-70
2023/05/24 04:26:46;;;;;;;24.10;5.85;;;;;;;4.89;100.00;102464.53;5239143;28;20456;-71
2023/05/24 04:29:17;;;;;;;17.92;5.25;;;;;;;4.88;100.00;102456.66;5230036;28;20048;-71
2023/05/24 04:31:48;;;;;;;14.82;4.80;;;;;;;4.90;100.00;102463.59;5228695;28;20023;-71
2023/05/24 04:34:21;;;;;;;16.45;5.10;;;;;;;4.95;100.00;102458.00;5223469;28;20062;-71
2023/05/24 04:36:51;;;;;;;17.45;5.70;;;;;;;5.00;100.00;102457.75;5237817;28;20497;-71
2023/05/24 04:39:22;;;;;;;18.58;5.25;;;;;;;5.06;100.00;102460.88;5234323;28;20032;-71
2023/05/24 04:41:54;;;;;;;18.13;4.90;;;;;;;5.13;100.00;102461.38;5239922;28;20020;-71
2023/05/24 04:44:24;;;;;;;22.63;5.38;;;;;;;5.22;100.00;102471.50;5233895;28;20039;-71
2023/05/24 04:46:55;;;;;;;14.10;5.88;;;;;;;5.32;100.00;102459.34;5233649;28;20029;-71
2023/05/24 04:49:25;;;;;;;18.23;5.13;;;;;;;5.43;100.00;102467.53;5235265;28;20024;-71
2023/05/24 04:51:56;;;;;;;18.45;4.85;;;;;;;5.55;100.00;102468.56;5233761;28;20075;-71
2023/05/24 04:54:26;;;;;;;19.15;6.28;;;;;;;5.67;100.00;102464.28;5238142;28;20021;-71
2023/05/24 04:56:57;;;;;;;24.17;5.95;;;;;;;5.78;100.00;102464.50;5239769;28;20032;-71
2023/05/24 04:59:27;;;;;;;17.48;5.88;;;;;;;5.89;100.00;102471.81;5237223;28;20056;-71
2023/05/24 05:01:58;;;;;;;23.50;6.38;;;;;;;6.01;100.00;102472.88;5234189;28;20032;-71
2023/05/24 05:04:28;;;;;;;20.50;5.45;;;;;;;6.09;100.00;102470.59;5235726;28;20033;-71
2023/05/24 05:06:59;;;;;;;17.65;5.78;;;;;;;6.20;100.00;102470.75;5239435;28;20025;-71
2023/05/24 05:09:29;;;;;;;21.65;5.90;;;;;;;6.33;100.00;102466.34;5238811;28;20024;-72
2023/05/24 05:12:00;;;;;;;26.35;6.13;;;;;;;6.51;100.00;102466.09;5233804;28;20016;-71
2023/05/24 05:14:30;;;;;;;25.58;5.90;;;;;;;6.62;100.00;102471.56;5246001;28;20028;-71
2023/05/24 05:17:01;;;;;;;25.23;6.68;;;;;;;6.77;100.00;102470.56;5233700;28;20017;-71
2023/05/24 05:19:31;;;;;;;30.17;7.30;;;;;;;6.95;100.00;102463.16;5233259;28;20385;-72
2023/05/24 05:22:02;;;;;;;17.50;6.70;;;;;;;7.11;100.00;102458.47;5245403;28;20354;-71
2023/05/24 05:24:32;;;;;;;27.85;6.32;;;;;;;7.26;100.00;102456.56;5246289;28;20024;-72
2023/05/24 05:27:03;;;;;;;36.42;7.15;;;;;;;7.42;100.00;102462.56;5246094;28;20481;-72
2023/05/24 05:29:33;;;;;;;25.58;6.28;;;;;;;7.62;100.00;102468.31;5234040;28;20462;-72
2023/05/24 05:32:04;;;;;;;29.20;6.18;;;;;;;7.81;100.00;102473.22;5246596;28;20379;-72
2023/05/24 05:34:35;;;;;;;32.63;6.30;;;;;;;8.02;100.00;102469.88;5233013;28;20027;-72
2023/05/24 05:37:06;;;;;;;27.42;6.57;;;;;;;8.18;100.00;102472.31;5231885;28;20379;-72
2023/05/24 05:39:36;;;;;;;28.98;6.47;;;;;;;8.35;100.00;102471.09;5240642;28;20035;-72
2023/05/24 05:42:07;;;;;;;28.95;5.95;;;;;;;8.53;100.00;102472.44;5245412;28;20016;-72
2023/05/24 05:44:38;;;;;;;27.75;6.35;;;;;;;8.69;100.00;102466.81;5234624;28;20028;-72
2023/05/24 05:47:08;;;;;;;38.25;7.53;;;;;;;8.89;100.00;102462.63;5243021;28;20031;-72
2023/05/24 05:49:39;;;;;;;25.85;6.60;;;;;;;9.10;100.00;102472.69;5236029;28;20082;-72
2023/05/24 05:52:09;;;;;;;19.73;5.78;;;;;;;9.31;100.00;102473.72;5232998;28;20020;-72
2023/05/24 05:54:40;;;;;;;33.38;6.38;;;;;;;9.67;100.00;102480.69;5235319;28;20474;-72
2023/05/24 05:57:10;;;;;;;22.35;5.95;;;;;;;10.31;100.00;102472.91;5238461;28;20032;-72
2023/05/24 05:59:41;;;;;;;27.23;5.78;;;;;;;11.29;100.00;102466.50;5237538;28;20283;-73
2023/05/24 06:02:11;;;;;;;17.70;4.85;;;;;;;12.25;100.00;102466.16;5233018;28;20028;-73
2023/05/24 06:04:42;;;;;;;17.95;4.50;;;;;;;13.04;100.00;102457.97;5232993;28;20032;-73
2023/05/24 06:07:12;;;;;;;23.38;5.63;;;;;;;13.83;100.00;102454.97;5238016;28;20374;-73
2023/05/24 06:09:43;;;;;;;22.05;5.10;;;;;;;14.27;100.00;102449.78;5238444;28;20028;-73
2023/05/24 06:12:13;;;;;;;30.42;5.32;;;;;;;14.35;100.00;102452.56;5234245;28;20033;-73
2023/05/24 06:14:47;;;;;;;21.90;6.10;;;;;;;14.58;100.00;102460.25;5232713;28;20102;-73
2023/05/24 06:17:17;;;;;;;22.40;5.18;;;;;;;15.34;100.00;102465.97;5234367;28;20409;-73
2023/05/24 06:19:48;;;;;;;20.17;4.32;;;;;;;16.09;100.00;102460.00;5238560;28;20035;-73
2023/05/24 06:22:20;;;;;;;25.63;5.78;;;;;;;15.94;100.00;102463.31;5235445;28;20079;-73
2023/05/24 06:24:51;;;;;;;17.80;4.65;;;;;;;16.92;100.00;102465.44;5235100;28;20028;-73
2023/05/24 06:27:21;;;;;;;19.08;5.15;;;;;;;17.22;100.00;102463.91;5224423;28;20029;-73
2023/05/24 06:29:52;;;;;;;17.90;4.50;;;;;;;17.48;100.00;102470.00;5225990;28;20478;-73
2023/05/24 06:32:22;;;;;;;20.70;4.43;;;;;;;17.07;100.00;102471.91;5234159;28;20025;-73
2023/05/24 06:34:53;;;;;;;26.88;5.32;;;;;;;16.90;100.00;102467.47;5228225;28;20029;-74
2023/05/24 06:37:24;;;;;;;17.17;4.65;;;;;;;17.21;100.00;102473.06;5228596;28;20091;-74
2023/05/24 06:39:54;;;;;;;20.42;4.63;;;;;;;17.61;100.00;102469.44;5239154;28;20110;-74
2023/05/24 06:42:25;;;;;;;16.50;4.15;;;;;;;17.45;100.00;102478.47;5241770;28;20033;-74
2023/05/24 06:44:56;;;;;;;18.65;4.35;;;;;;;16.80;100.00;102470.34;5235207;28;20452;-73
2023/05/24 06:47:26;;;;;;;16.80;4.07;;;;;;;16.74;100.00;102471.88;5227558;28;20037;-77
2023/05/24 06:49:57;;;;;;;16.10;4.13;;;;;;;16.76;100.00;102477.97;5236847;28;20103;-74
2023/05/24 06:52:27;;;;;;;26.50;4.82;;;;;;;16.91;100.00;102480.00;5231847;28;20389;-74
2023/05/24 06:54:58;;;;;;;25.48;4.55;;;;;;;16.94;100.00;102483.25;5232103;28;20021;-74
2023/05/24 06:57:28;;;;;;;20.67;4.60;;;;;;;16.44;100.00;102477.88;5237080;28;20028;-73
2023/05/24 06:59:58;;;;;;;21.88;4.47;;;;;;;16.29;100.00;102475.81;5224427;28;20489;-73
2023/05/24 07:02:29;;;;;;;23.35;4.95;;;;;;;15.66;100.00;102478.03;5236821;28;20052;-73
2023/05/24 07:04:59;;;;;;;21.45;5.28;;;;;;;15.44;100.00;102479.41;5237442;28;20056;-73
2023/05/24 07:07:30;;;;;;;25.23;5.40;;;;;;;15.27;100.00;102484.69;5232726;28;20443;-73
2023/05/24 07:10:00;;;;;;;24.60;4.95;;;;;;;15.01;100.00;102484.66;5231006;28;20032;-72
2023/05/24 07:12:31;;;;;;;24.48;5.30;;;;;;;14.85;100.00;102494.44;5233677;28;20478;-72
2023/05/24 07:15:03;;;;;;;21.33;4.47;;;;;;;14.94;100.00;102496.22;5237295;28;20029;-73
2023/05/24 07:17:34;;;;;;;16.85;4.50;;;;;;;14.99;100.00;102491.22;5235172;28;20024;-73
2023/05/24 07:20:09;;;;;;;34.83;5.30;;;;;;;14.69;100.00;102496.00;5230078;28;20056;-73
2023/05/24 07:22:40;;;;;;;21.15;5.88;;;;;;;14.39;100.00;102497.16;5242399;28;20032;-73
2023/05/24 07:25:10;;;;;;;18.05;4.35;;;;;;;14.41;100.00;102492.47;5232720;28;20037;-72
2023/05/24 07:27:41;;;;;;;23.73;5.28;;;;;;;14.36;100.00;102494.78;5237179;28;20492;-72
2023/05/24 07:30:12;;;;;;;30.35;5.50;;;;;;;14.35;100.00;102494.91;5234261;28;20221;-72
2023/05/24 07:32:42;;;;;;;21.92;4.47;;;;;;;14.44;100.00;102502.94;5240911;28;20029;-72
2023/05/24 07:35:13;;;;;;;24.30;5.85;;;;;;;14.74;100.00;102496.38;5233625;28;20020;-72
2023/05/24 07:37:43;;;;;;;20.45;5.07;;;;;;;14.71;100.00;102494.00;5236523;28;20352;-72
2023/05/24 07:40:14;;;;;;;22.10;4.82;;;;;;;14.57;100.00;102491.81;5228897;28;20347;-72
2023/05/24 07:42:46;;;;;;;25.38;5.28;;;;;;;14.75;100.00;102497.22;5237008;28;20025;-72
2023/05/24 07:45:16;;;;;;;23.50;4.78;;;;;;;14.75;100.00;102492.66;5236590;28;20051;-72
2023/05/24 07:47:47;;;;;;;18.83;4.25;;;;;;;14.91;100.00;102496.53;5225632;28;20064;-72
2023/05/24 07:50:18;;;;;;;16.45;4.50;;;;;;;15.23;100.00;102485.16;5236620;28;20029;-73
2023/05/24 07:52:48;;;;;;;18.30;3.25;;;;;;;15.78;100.00;102477.63;5231469;28;20504;-73
2023/05/24 07:55:19;;;;;;;16.27;3.97;;;;;;;16.38;100.00;102478.56;5230496;28;20104;-73
2023/05/24 07:57:50;;;;;;;13.13;3.80;;;;;;;16.69;100.00;102481.50;5234600;28;20025;-73
2023/05/24 08:00:21;;;;;;;20.80;4.40;;;;;;;16.80;100.00;102483.91;5238456;28;20025;-73
2023/05/24 08:02:52;;;;;;;14.43;3.63;;;;;;;16.76;100.00;102480.66;5238203;28;20048;-73
2023/05/24 08:05:23;;;;;;;22.02;4.50;;;;;;;17.35;100.00;102483.22;5234404;28;20035;-73
2023/05/24 08:07:53;;;;;;;16.33;3.70;;;;;;;17.95;100.00;102479.22;5236280;28;20021;-73
2023/05/24 08:10:24;;;;;;;18.13;4.82;;;;;;;18.69;100.00;102477.84;5246428;28;20086;-73
2023/05/24 08:12:55;;;;;;;19.10;4.32;;;;;;;19.35;100.00;102479.00;5234770;28;20028;-73
2023/05/24 08:15:25;;;;;;;21.48;3.75;;;;;;;20.38;100.00;102486.34;5240224;28;20525;-73
2023/05/24 08:17:56;;;;;;;17.73;4.20;;;;;;;19.89;100.00;102486.13;5241047;28;20016;-73
2023/05/24 08:20:27;;;;;;;14.30;3.85;;;;;;;19.82;100.00;102485.16;5247108;28;20486;-73
2023/05/24 08:22:57;;;;;;;15.18;3.78;;;;;;;20.04;100.00;102473.34;5239262;28;20037;-73
2023/05/24 08:25:28;;;;;;;16.23;4.25;;;;;;;20.23;100.00;102487.38;5223941;28;20025;-74
2023/05/24 08:27:58;;;;;;;17.80;3.92;;;;;;;19.89;100.00;102480.69;5236622;28;20262;-73
2023/05/24 08:30:29;;;;;;;17.02;4.18;;;;;;;19.49;96.23;102473.78;5234735;28;20039;-73
2023/05/24 08:33:00;;;;;;;26.65;5.00;;;;;;;19.14;100.00;102481.59;5239557;28;20062;-73
2023/05/24 08:35:30;;;;;;;31.95;7.38;;;;;;;19.16;100.00;102476.78;5233135;28;20408;-73
2023/05/24 08:38:01;;;;;;;27.45;5.78;;;;;;;19.59;100.00;102477.06;5240260;28;20033;-73
2023/05/24 08:40:31;;;;;;;13.80;4.88;;;;;;;19.86;100.00;102481.03;5245951;28;20024;-73
2023/05/24 08:43:02;;;;;;;12.90;4.07;;;;;;;19.49;100.00;102477.34;5239263;28;20059;-73
2023/05/24 08:45:36;;;;;;;14.80;4.50;;;;;;;19.70;100.00;102476.63;5235581;28;20025;-73
2023/05/24 08:48:07;;;;;;;14.32;4.50;;;;;;;19.53;100.00;102473.22;5235603;28;20024;-73
2023/05/24 08:50:38;;;;;;;19.98;4.85;;;;;;;19.07;100.00;102469.72;5241164;28;20427;-73
2023/05/24 08:53:10;;;;;;;20.73;4.78;;;;;;;19.02;100.00;102467.56;5237794;28;20061;-73
2023/05/24 08:55:42;;;;;;;13.65;4.85;;;;;;;19.08;100.00;102466.84;5239331;28;20031;-73
2023/05/24 08:58:13;;;;;;;16.17;5.13;;;;;;;19.02;100.00;102461.28;5235977;28;20382;-73
2023/05/24 09:00:43;;;;;;;19.95;5.72;;;;;;;18.87;100.00;102455.78;5241210;28;20016;-73
2023/05/24 09:03:16;;;;;;;22.25;6.18;;;;;;;18.82;100.00;102467.19;5238670;28;20025;-73
2023/05/24 09:05:46;;;;;;;22.67;4.90;;;;;;;19.05;100.00;102460.91;5243251;28;20035;-73
2023/05/24 09:08:19;;;;;;;19.33;5.35;;;;;;;19.35;100.00;102456.38;5241056;28;20016;-74
2023/05/24 09:10:49;;;;;;;20.95;5.40;;;;;;;19.66;100.00;102458.97;5244265;28;20077;-73
2023/05/24 09:13:23;;;;;;;16.50;5.15;;;;;;;19.68;100.00;102465.09;5244181;28;20465;-73
2023/05/24 09:15:54;;;;;;;14.40;5.68;;;;;;;19.45;100.00;102464.28;5242999;28;20032;-73
2023/05/24 09:18:25;;;;;;;17.10;6.07;;;;;;;19.09;100.00;102468.53;5243737;28;20113;-73
2023/05/24 09:20:55;;;;;;;14.43;5.22;;;;;;;18.96;100.00;102460.13;5242135;28;20056;-73
2023/05/24 09:23:26;;;;;;;13.10;4.93;;;;;;;19.16;100.00;102463.19;5226004;28;20033;-73
2023/05/24 09:25:57;;;;;;;15.82;5.45;;;;;;;19.03;100.00;102460.25;5225176;28;20024;-73
2023/05/24 09:28:31;;;;;;;20.20;6.28;;;;;;;18.59;100.00;102464.47;5238891;28;20020;-73
2023/05/24 09:31:03;;;;;;;21.38;6.60;;;;;;;18.75;100.00;102449.09;5236015;28;20029;-73
2023/05/24 09:33:34;;;;;;;20.42;6.47;;;;;;;19.05;100.00;102455.47;5213380;28;20025;-73
2023/05/24 09:36:05;;;;;;;18.77;6.13;;;;;;;19.63;100.00;102462.94;5226242;28;20455;-73
2023/05/24 09:38:36;;;;;;;15.70;6.28;;;;;;;19.40;100.00;102453.94;5227470;28;20100;-73
2023/05/24 09:41:07;;;;;;;16.67;5.95;;;;;;;19.24;100.00;102446.81;5226709;28;20024;-73
2023/05/24 09:43:56;;;;;;;18.88;7.00;;;;;;;18.92;100.00;102444.34;5227863;28;20033;-73
2023/05/24 09:46:28;;;;;;;18.60;6.85;;;;;;;19.03;100.00;102446.66;5226961;28;20064;-73
2023/05/24 09:49:02;;;;;;;17.33;6.90;;;;;;;19.60;100.00;102444.25;5243746;28;20024;-73
2023/05/24 09:51:37;;;;;;;17.02;7.03;;;;;;;19.76;100.00;102442.34;5229894;28;20112;-73
2023/05/24 09:54:08;;;;;;;20.23;7.47;;;;;;;20.19;100.00;102437.91;5226633;28;20101;-73
2023/05/24 09:56:39;;;;;;;21.58;6.85;;;;;;;20.61;100.00;102447.19;5226775;28;20108;-73
2023/05/24 09:59:09;;;;;;;32.53;7.97;;;;;;;20.82;100.00;102441.72;5225968;28;20025;-73
2023/05/24 10:01:40;;;;;;;30.85;8.82;;;;;;;20.68;100.00;102442.63;5238664;28;20646;-73
2023/05/24 10:04:11;;;;;;;33.67;8.32;;;;;;;20.50;100.00;102432.19;5227374;28;20798;-74
2023/05/24 10:06:43;;;;;;;18.13;7.25;;;;;;;19.77;100.00;102422.25;5225795;28;20029;-74
2023/05/24 10:09:13;;;;;;;17.73;6.95;;;;;;;19.26;100.00;102439.28;5227046;28;20389;-73
2023/05/24 10:11:44;;;;;;;16.55;7.60;;;;;;;18.99;100.00;102432.59;5225975;28;20033;-73
2023/05/24 10:14:16;;;;;;;22.83;8.25;;;;;;;19.27;100.00;102426.53;5227244;28;20032;-73
2023/05/24 10:16:47;;;;;;;21.85;7.80;;;;;;;19.77;100.00;102424.97;5224053;28;21645;-73
2023/05/24 10:19:17;;;;;;;19.42;8.38;;;;;;;20.21;100.00;102426.81;5238545;28;20376;-73
2023/05/24 10:21:48;;;;;;;19.13;7.93;;;;;;;20.73;100.00;102437.44;5242048;28;20035;-73
2023/05/24 10:24:24;;;;;;;17.35;7.30;;;;;;;21.15;100.00;102431.13;5243730;28;20028;-73
2023/05/24 10:26:57;;;;;;;18.83;7.63;;;;;;;21.21;100.00;102434.94;5243738;28;20093;-73
2023/05/24 10:29:44;;;;;;;21.95;7.82;;;;;;;20.89;100.00;102429.00;5244755;28;20024;-73
2023/05/24 10:32:17;;;;;;;21.13;8.10;;;;;;;21.00;100.00;102424.91;5243203;28;20020;-73
2023/05/24 10:34:49;;;;;;;20.05;7.55;;;;;;;20.64;100.00;102419.56;5242288;28;20377;-73
2023/05/24 10:37:20;;;;;;;21.23;8.05;;;;;;;20.28;100.00;102420.41;5241158;28;20035;-73
2023/05/24 10:39:50;;;;;;;19.67;7.50;;;;;;;20.26;100.00;102414.28;5237193;28;20021;-73
2023/05/24 10:42:21;;;;;;;21.42;7.68;;;;;;;20.26;100.00;102417.00;5241275;28;20020;-73
2023/05/24 10:44:55;;;;;;;18.25;7.80;;;;;;;19.87;100.00;102417.38;5237248;28;20024;-73
2023/05/24 10:47:27;;;;;;;22.55;8.55;;;;;;;19.81;100.00;102420.84;5240574;28;20020;-73
2023/05/24 10:50:03;;;;;;;22.90;8.00;;;;;;;19.41;100.00;102414.81;5239281;28;20489;-73
2023/05/24 10:52:35;;;;;;;14.90;7.75;;;;;;;19.19;100.00;102416.59;5238499;28;20552;-73
2023/05/24 10:55:08;;;;;;;21.10;9.48;;;;;;;19.10;100.00;102418.53;5235712;28;20023;-73
2023/05/24 10:57:39;;;;;;;17.27;7.07;;;;;;;19.14;100.00;102421.75;5237017;28;20082;-73
2023/05/24 11:00:27;;;;;;;17.77;7.72;;;;;;;18.99;100.00;102404.53;5240916;28;20115;-73
2023/05/24 11:03:01;;;;;;;21.33;6.85;;;;;;;19.06;100.00;102400.88;5235219;28;20016;-73
2023/05/24 11:05:34;;;;;;;29.10;8.55;;;;;;;19.02;100.00;102406.88;5238727;28;20024;-73
2023/05/24 11:08:06;;;;;;;25.70;8.43;;;;;;;19.31;100.00;102395.19;5241388;28;20412;-73
2023/05/24 11:10:37;;;;;;;21.58;6.78;;;;;;;19.45;100.00;102396.25;5236403;28;20029;-73
2023/05/24 11:13:07;;;;;;;19.42;7.30;;;;;;;19.69;100.00;102393.28;5240332;28;20016;-73
2023/05/24 11:15:38;;;;;;;19.98;6.80;;;;;;;20.11;100.00;102394.41;5235584;28;20025;-73
2023/05/24 11:20:56;;;;;;;19.45;7.82;;;;;;;20.84;100.00;102397.91;5235469;28;20078;-73
2023/05/24 11:23:28;;;;;;;15.82;7.50;;;;;;;20.71;100.00;102395.91;5236674;28;20025;-74
2023/05/24 11:25:58;;;;;;;17.40;7.60;;;;;;;20.77;100.00;102394.28;5239360;28;20021;-73
2023/05/24 11:28:29;;;;;;;17.15;6.97;;;;;;;20.69;100.00;102401.56;5234521;28;20050;-73
2023/05/24 11:31:08;;;;;;;20.85;6.55;;;;;;;20.60;100.00;102397.28;5242956;28;20024;-73
2023/05/24 11:33:41;;;;;;;20.02;6.97;;;;;;;20.38;100.00;102404.59;5233733;28;20025;-73
2023/05/24 11:36:11;;;;;;;19.20;7.18;;;;;;;20.11;100.00;102399.84;5234228;28;20267;-73
2023/05/24 11:38:42;;;;;;;19.75;6.90;;;;;;;20.10;100.00;102388.13;5239622;28;20032;-73
2023/05/24 11:41:12;;;;;;;20.33;6.85;;;;;;;20.37;100.00;102402.03;5231390;28;20021;-73